Time;durP1;ratioP1;P1;durP2;ratioP2;P2;SDS_P1;SDS_P2;PMS_P1;PMS_P2;Temp;Humidity;BMP_temperature;BMP_pressure;BME280_temperature;BME280_humidity;BME280_pressure;Samples;Min_cycle;Max_cycle;Signal;HPM_P1;HPM_P2
2022/04/17 00:01:44;;;;;;;6.57;3.38;;;3.80;99.90;;;;;;5014513;28;20030;-60
2022/04/17 00:04:13;;;;;;;5.63;3.30;;;3.70;99.90;;;;;;5022417;28;20091;-61
2022/04/17 00:06:38;;;;;;;7.50;3.97;;;3.60;99.90;;;;;;5031544;28;20034;-61
2022/04/17 00:09:04;;;;;;;8.75;3.50;;;3.60;99.90;;;;;;5019063;28;20053;-61
2022/04/17 00:11:30;;;;;;;5.50;3.08;;;3.70;99.90;;;;;;5002489;28;20038;-61
2022/04/17 00:13:58;;;;;;;6.35;3.10;;;3.70;99.90;;;;;;5019879;28;20045;-61
2022/04/17 00:16:24;;;;;;;8.65;3.50;;;3.60;99.90;;;;;;5026162;28;20061;-61
2022/04/17 00:18:50;;;;;;;7.30;3.50;;;3.70;99.90;;;;;;5021533;28;20473;-61
2022/04/17 00:21:15;;;;;;;7.55;3.38;;;3.60;99.90;;;;;;5024450;28;20454;-61
2022/04/17 00:23:44;;;;;;;7.72;3.63;;;3.60;99.90;;;;;;5014367;28;20034;-61
2022/04/17 00:26:10;;;;;;;10.57;4.20;;;3.40;99.90;;;;;;5011223;28;20062;-61
2022/04/17 00:28:36;;;;;;;6.75;3.75;;;3.40;99.90;;;;;;5012031;28;20497;-61
2022/04/17 00:31:01;;;;;;;9.68;3.92;;;3.50;99.90;;;;;;5012218;28;20034;-61
2022/04/17 00:33:27;;;;;;;8.30;4.07;;;3.40;99.90;;;;;;5003873;28;20030;-61
2022/04/17 00:35:53;;;;;;;7.57;3.97;;;3.40;99.90;;;;;;5011970;28;20040;-60
2022/04/17 00:38:18;;;;;;;7.70;3.70;;;3.30;99.90;;;;;;5011271;28;20038;-60
2022/04/17 00:40:44;;;;;;;6.95;3.95;;;3.20;99.90;;;;;;5011766;28;20503;-61
2022/04/17 00:43:25;;;;;;;8.00;3.90;;;3.20;99.90;;;;;;5010976;28;20041;-61
2022/04/17 00:45:51;;;;;;;6.70;3.95;;;3.10;99.90;;;;;;5006823;28;20168;-61
2022/04/17 00:48:18;;;;;;;6.57;3.40;;;3.20;99.90;;;;;;5023623;28;20029;-61
2022/04/17 00:50:45;;;;;;;6.35;3.33;;;3.20;99.90;;;;;;5014458;28;20034;-61
2022/04/17 00:53:12;;;;;;;6.75;3.75;;;3.20;99.90;;;;;;5010747;28;20721;-61
2022/04/17 00:55:39;;;;;;;9.32;4.35;;;3.20;99.90;;;;;;5011411;28;20080;-61
2022/04/17 00:58:05;;;;;;;11.15;4.20;;;3.10;99.90;;;;;;5030134;28;20029;-61
2022/04/17 01:00:33;;;;;;;6.65;3.88;;;3.10;99.90;;;;;;5022051;28;20025;-61
2022/04/17 01:02:59;;;;;;;8.02;4.05;;;3.10;99.90;;;;;;5020793;28;20042;-61
2022/04/17 01:05:24;;;;;;;7.97;4.07;;;3.00;99.90;;;;;;4992941;28;20117;-61
2022/04/17 01:07:51;;;;;;;8.18;4.20;;;2.90;99.90;;;;;;5018895;28;20040;-61
2022/04/17 01:10:17;;;;;;;11.20;4.68;;;2.80;99.90;;;;;;5010396;28;20037;-61
2022/04/17 01:12:43;;;;;;;11.35;4.63;;;2.70;99.90;;;;;;5018514;28;20048;-61
2022/04/17 01:15:10;;;;;;;11.02;4.75;;;2.70;99.90;;;;;;5010718;28;20483;-61
2022/04/17 01:17:36;;;;;;;9.50;4.40;;;2.70;99.90;;;;;;5011099;28;20054;-61
2022/04/17 01:20:04;;;;;;;8.27;4.38;;;2.50;99.90;;;;;;5019540;28;20442;-61
2022/04/17 01:22:29;;;;;;;9.82;4.00;;;2.40;99.90;;;;;;5016493;28;20109;-61
2022/04/17 01:27:39;;;;;;;8.93;4.30;;;2.40;99.90;;;;;;5018683;28;20037;-61
2022/04/17 01:30:06;;;;;;;10.95;4.72;;;2.40;99.90;;;;;;5026922;28;20049;-61
2022/04/17 01:32:31;;;;;;;9.25;3.85;;;2.40;99.90;;;;;;5009092;28;20129;-61
2022/04/17 01:34:57;;;;;;;9.05;4.30;;;2.40;99.90;;;;;;5010514;28;20531;-61
2022/04/17 01:37:23;;;;;;;8.82;4.63;;;2.50;99.90;;;;;;5009827;28;20422;-61
2022/04/17 01:39:48;;;;;;;10.38;5.10;;;2.50;99.90;;;;;;5025674;28;20035;-61
2022/04/17 01:42:16;;;;;;;10.07;4.40;;;2.40;99.90;;;;;;5018656;28;20057;-61
2022/04/17 01:44:42;;;;;;;7.95;4.32;;;2.50;99.90;;;;;;5010396;28;20049;-61
2022/04/17 01:47:08;;;;;;;9.32;3.92;;;2.50;99.90;;;;;;5011184;28;20484;-61
2022/04/17 01:49:34;;;;;;;9.20;4.07;;;2.60;99.90;;;;;;5023189;28;20045;-61
2022/04/17 01:52:00;;;;;;;8.20;4.43;;;2.60;99.90;;;;;;5010150;28;20121;-61
2022/04/17 01:54:27;;;;;;;9.27;4.35;;;2.60;99.90;;;;;;5009592;28;20080;-61
2022/04/17 01:56:55;;;;;;;7.85;4.35;;;2.50;99.90;;;;;;5010739;28;20612;-61
2022/04/17 01:59:22;;;;;;;8.75;4.78;;;2.50;99.90;;;;;;5009369;28;20053;-61
2022/04/17 02:01:48;;;;;;;9.82;4.60;;;2.50;99.90;;;;;;5018572;28;20018;-61
2022/04/17 02:04:14;;;;;;;10.90;4.65;;;2.30;99.90;;;;;;5009636;28;20490;-61
2022/04/17 02:06:41;;;;;;;10.77;4.25;;;2.10;99.90;;;;;;5009937;28;20075;-61
2022/04/17 02:09:12;;;;;;;11.68;4.45;;;2.00;99.90;;;;;;5017725;28;20033;-60
2022/04/17 02:11:38;;;;;;;11.23;4.95;;;1.80;99.90;;;;;;5009875;28;20032;-60
2022/04/17 02:14:06;;;;;;;8.30;4.15;;;1.70;99.90;;;;;;5009979;28;20041;-61
2022/04/17 02:16:32;;;;;;;9.93;4.85;;;1.70;99.90;;;;;;5011881;28;20107;-60
2022/04/17 02:18:58;;;;;;;11.45;5.07;;;1.80;99.90;;;;;;5014634;28;20034;-60
2022/04/17 02:21:24;;;;;;;11.68;5.25;;;1.70;99.90;;;;;;5008912;28;20040;-61
2022/04/17 02:23:50;;;;;;;10.60;5.30;;;1.70;99.90;;;;;;5017903;28;20033;-61
2022/04/17 02:26:17;;;;;;;12.57;4.72;;;1.60;99.90;;;;;;5009046;28;20033;-61
2022/04/17 02:28:43;;;;;;;10.65;4.90;;;1.40;99.90;;;;;;5009737;28;20083;-60
2022/04/17 02:31:09;;;;;;;11.25;4.95;;;1.30;99.90;;;;;;5010477;28;20030;-60
2022/04/17 02:33:36;;;;;;;11.80;5.15;;;1.30;99.90;;;;;;5009348;28;20204;-60
2022/04/17 02:36:02;;;;;;;10.45;4.93;;;1.30;99.90;;;;;;5010253;28;20034;-60
2022/04/17 02:38:27;;;;;;;10.07;5.00;;;1.30;99.90;;;;;;5008503;28;20429;-61
2022/04/17 02:40:54;;;;;;;7.88;3.83;;;1.40;99.90;;;;;;5015941;28;20032;-60
2022/04/17 02:43:20;;;;;;;15.75;5.03;;;1.50;99.90;;;;;;5008315;28;20375;-60
2022/04/17 02:45:46;;;;;;;11.30;4.43;;;1.60;99.90;;;;;;5009273;28;20557;-61
2022/04/17 02:48:12;;;;;;;8.27;3.80;;;1.80;99.90;;;;;;5017584;28;20034;-60
2022/04/17 02:50:39;;;;;;;8.00;4.28;;;1.90;99.90;;;;;;5008643;28;20037;-60
2022/04/17 02:53:05;;;;;;;11.82;4.50;;;2.10;99.90;;;;;;5009568;28;20096;-61
2022/04/17 02:55:31;;;;;;;8.70;4.68;;;2.20;99.90;;;;;;5013480;28;20029;-60
2022/04/17 02:57:57;;;;;;;9.88;4.65;;;2.10;99.90;;;;;;5009001;28;20029;-60
2022/04/17 03:00:30;;;;;;;10.68;5.00;;;2.00;99.90;;;;;;5008364;28;20129;-61
2022/04/17 03:05:41;;;;;;;11.63;4.95;;;1.70;99.90;;;;;;5017059;28;20103;-61
2022/04/17 03:08:12;;;;;;;12.68;5.57;;;1.50;99.90;;;;;;5009373;28;20061;-61
2022/04/17 03:10:40;;;;;;;9.30;4.72;;;1.50;99.90;;;;;;5008409;28;20033;-61
2022/04/17 03:13:06;;;;;;;9.82;4.72;;;1.40;99.90;;;;;;5009087;28;20046;-60
2022/04/17 03:15:34;;;;;;;11.35;5.25;;;1.40;99.90;;;;;;5006587;28;20041;-60
2022/04/17 03:18:00;;;;;;;12.70;5.00;;;1.30;99.90;;;;;;5013946;28;20422;-60
2022/04/17 03:20:27;;;;;;;9.68;4.65;;;1.10;99.90;;;;;;5011525;28;20040;-60
2022/04/17 03:22:52;;;;;;;11.60;4.93;;;1.00;99.90;;;;;;5009235;28;20025;-60
2022/04/17 03:25:18;;;;;;;10.23;4.85;;;1.00;99.90;;;;;;5008935;28;20041;-61
2022/04/17 03:27:46;;;;;;;9.55;5.10;;;0.90;99.90;;;;;;5009222;28;20029;-61
2022/04/17 03:30:18;;;;;;;9.65;4.43;;;1.00;99.90;;;;;;5009219;28;20037;-61
2022/04/17 03:32:45;;;;;;;12.00;4.75;;;0.90;99.90;;;;;;5017169;28;20057;-61
2022/04/17 03:35:13;;;;;;;11.80;4.88;;;0.70;99.90;;;;;;5008937;28;20034;-60
2022/04/17 03:37:39;;;;;;;10.90;4.85;;;0.60;99.90;;;;;;4990623;28;20026;-61
2022/04/17 03:40:05;;;;;;;11.65;5.57;;;0.60;99.90;;;;;;5008647;28;20033;-60
2022/04/17 03:42:31;;;;;;;9.32;4.57;;;0.70;99.90;;;;;;5008269;28;20042;-61
2022/04/17 03:44:57;;;;;;;8.57;4.60;;;0.70;99.90;;;;;;5020612;28;20031;-61
2022/04/17 03:47:23;;;;;;;10.27;4.75;;;0.70;99.90;;;;;;5012373;28;20365;-61
2022/04/17 03:49:48;;;;;;;8.75;4.88;;;0.70;99.90;;;;;;5008977;28;20057;-60
2022/04/17 03:52:14;;;;;;;11.23;5.13;;;0.70;99.90;;;;;;5009466;28;20036;-60
2022/04/17 03:54:40;;;;;;;8.82;4.40;;;0.80;99.90;;;;;;5008838;28;20034;-61
2022/04/17 03:57:05;;;;;;;10.45;4.82;;;0.80;99.90;;;;;;5026280;28;20069;-60
2022/04/17 03:59:31;;;;;;;10.43;4.72;;;0.80;99.90;;;;;;5011696;28;20639;-61
2022/04/17 04:01:58;;;;;;;10.00;4.45;;;0.90;99.90;;;;;;5023157;28;20075;-61
2022/04/17 04:04:23;;;;;;;10.73;4.90;;;0.90;99.90;;;;;;5024581;28;20034;-60
2022/04/17 04:06:50;;;;;;;8.85;4.57;;;1.00;99.90;;;;;;5029064;28;20116;-60
2022/04/17 04:09:16;;;;;;;11.35;4.80;;;1.00;99.90;;;;;;5012287;28;20065;-60
2022/04/17 04:11:44;;;;;;;9.30;4.55;;;1.00;99.90;;;;;;4993674;28;20026;-60
2022/04/17 04:14:10;;;;;;;9.85;4.38;;;1.00;99.90;;;;;;5016428;28;20055;-61
2022/04/17 04:16:36;;;;;;;11.60;4.35;;;1.00;99.90;;;;;;5030314;28;20115;-60
2022/04/17 04:19:05;;;;;;;11.95;4.85;;;1.00;99.90;;;;;;5012296;28;20037;-60
2022/04/17 04:21:31;;;;;;;12.10;4.72;;;1.00;99.90;;;;;;4993598;28;20034;-61
2022/04/17 04:23:56;;;;;;;8.13;4.13;;;0.90;99.90;;;;;;5022119;28;20026;-61
2022/04/17 04:26:22;;;;;;;8.48;4.30;;;0.80;99.90;;;;;;5025695;28;20429;-60
2022/04/17 04:28:48;;;;;;;10.55;4.80;;;0.70;99.90;;;;;;5019588;28;20104;-60
2022/04/17 04:31:15;;;;;;;10.02;4.90;;;0.70;99.90;;;;;;5011865;28;20033;-60
2022/04/17 04:33:43;;;;;;;10.32;4.25;;;0.70;99.90;;;;;;5001306;28;20084;-60
2022/04/17 04:36:11;;;;;;;10.48;5.00;;;0.70;99.90;;;;;;5011860;28;20033;-60
2022/04/17 04:38:37;;;;;;;10.77;4.43;;;0.80;99.90;;;;;;5011107;28;20117;-60
2022/04/17 04:41:04;;;;;;;11.20;5.00;;;0.80;99.90;;;;;;5012149;28;20041;-60
2022/04/17 04:43:30;;;;;;;10.35;4.65;;;0.80;99.90;;;;;;5010781;28;20061;-61
2022/04/17 04:46:07;;;;;;;10.30;4.93;;;0.80;99.90;;;;;;5020946;28;20040;-60
2022/04/17 04:51:23;;;;;;;9.52;4.50;;;0.80;99.90;;;;;;5013600;28;20101;-60
2022/04/17 04:53:49;;;;;;;9.25;4.35;;;0.90;99.90;;;;;;5011278;28;20041;-61
2022/04/17 04:56:16;;;;;;;10.45;4.30;;;0.80;99.90;;;;;;5014954;28;20053;-60
2022/04/17 04:58:42;;;;;;;10.25;4.25;;;0.80;99.90;;;;;;5023027;28;20467;-60
2022/04/17 05:01:08;;;;;;;9.18;4.28;;;0.90;99.90;;;;;;5011478;28;20034;-60
2022/04/17 05:03:34;;;;;;;9.55;4.32;;;0.90;99.90;;;;;;5010086;28;20030;-60
2022/04/17 05:06:00;;;;;;;8.32;4.15;;;1.00;99.90;;;;;;5011133;28;20037;-61
2022/04/17 05:08:25;;;;;;;8.68;4.20;;;1.10;99.90;;;;;;5009108;28;20118;-60
2022/04/17 05:10:52;;;;;;;11.57;4.30;;;1.20;99.90;;;;;;5021426;28;20053;-60
2022/04/17 05:13:18;;;;;;;12.13;4.75;;;1.30;99.90;;;;;;5013359;28;20055;-60
2022/04/17 05:15:43;;;;;;;8.88;4.25;;;1.50;99.90;;;;;;5012321;28;20612;-60
2022/04/17 05:18:09;;;;;;;11.43;5.10;;;1.70;99.90;;;;;;5012238;28;20390;-61
2022/04/17 05:20:35;;;;;;;8.88;4.00;;;2.00;99.90;;;;;;5010284;28;20646;-61
2022/04/17 05:23:15;;;;;;;8.20;4.30;;;2.20;99.90;;;;;;5009057;28;20466;-60
2022/04/17 05:25:47;;;;;;;6.75;4.20;;;2.30;99.90;;;;;;4992289;28;20030;-60
2022/04/17 05:28:14;;;;;;;9.70;4.53;;;2.50;99.90;;;;;;5010873;28;20061;-61
2022/04/17 05:30:39;;;;;;;8.98;4.57;;;2.60;99.90;;;;;;5019323;28;20538;-61
2022/04/17 05:33:05;;;;;;;9.52;4.10;;;2.60;99.90;;;;;;5010568;28;20130;-61
2022/04/17 05:35:31;;;;;;;9.95;4.65;;;2.50;99.90;;;;;;4993515;28;20025;-60
2022/04/17 05:37:57;;;;;;;11.40;5.40;;;2.50;99.90;;;;;;5010960;28;20033;-61
2022/04/17 05:40:22;;;;;;;11.52;4.70;;;2.60;99.90;;;;;;5010234;28;20487;-61
2022/04/17 05:42:48;;;;;;;10.20;4.53;;;2.70;99.90;;;;;;5010109;28;20901;-61
2022/04/17 05:45:14;;;;;;;10.00;4.80;;;2.90;99.90;;;;;;5018358;28;20033;-61
2022/04/17 05:47:40;;;;;;;8.50;3.83;;;3.00;99.90;;;;;;5009959;28;20041;-61
2022/04/17 05:50:06;;;;;;;9.50;4.57;;;3.20;99.90;;;;;;5009928;28;20038;-61
2022/04/17 05:52:32;;;;;;;8.90;4.60;;;3.40;99.90;;;;;;5009447;28;20596;-61
2022/04/17 05:54:58;;;;;;;9.30;4.57;;;3.40;99.90;;;;;;5025146;28;20104;-61
2022/04/17 05:57:23;;;;;;;8.00;4.10;;;3.50;99.90;;;;;;5021238;28;20044;-61
2022/04/17 05:59:49;;;;;;;7.18;4.10;;;3.60;99.90;;;;;;5023389;28;20029;-61
2022/04/17 06:02:15;;;;;;;9.52;4.20;;;3.60;99.90;;;;;;5012259;28;20522;-61
2022/04/17 06:04:41;;;;;;;9.52;4.15;;;3.70;99.90;;;;;;5019747;28;20112;-61
2022/04/17 06:07:08;;;;;;;9.38;4.38;;;3.90;99.90;;;;;;4992560;28;20033;-61
2022/04/17 06:09:34;;;;;;;9.70;4.15;;;4.00;99.90;;;;;;5009608;28;20072;-61
2022/04/17 06:12:00;;;;;;;11.02;4.18;;;4.00;99.90;;;;;;5018592;28;20609;-61
2022/04/17 06:14:26;;;;;;;7.03;4.03;;;4.10;99.90;;;;;;5016771;28;20041;-61
2022/04/17 06:16:52;;;;;;;8.70;4.28;;;4.10;99.90;;;;;;5010893;28;20486;-61
2022/04/17 06:19:18;;;;;;;8.98;4.53;;;4.20;99.90;;;;;;5021355;28;20128;-61
2022/04/17 06:21:43;;;;;;;7.40;4.30;;;4.30;99.90;;;;;;5028544;28;20449;-61
2022/04/17 06:24:09;;;;;;;7.55;3.95;;;4.40;99.90;;;;;;5017865;28;20044;-60
2022/04/17 06:26:35;;;;;;;7.68;4.03;;;4.60;99.90;;;;;;5008880;28;20044;-61
2022/04/17 06:29:05;;;;;;;7.40;4.00;;;4.80;99.90;;;;;;4991794;28;20041;-61
2022/04/17 06:31:31;;;;;;;5.83;3.13;;;4.90;99.90;;;;;;5015254;28;20025;-61
2022/04/17 06:33:57;;;;;;;8.23;4.35;;;5.00;99.90;;;;;;5019189;28;20040;-61
2022/04/17 06:36:23;;;;;;;8.63;4.55;;;5.20;99.90;;;;;;5009772;28;20393;-61
2022/04/17 06:38:48;;;;;;;6.50;4.18;;;5.30;99.90;;;;;;5024086;28;20021;-61
2022/04/17 06:41:14;;;;;;;9.07;4.07;;;5.40;99.90;;;;;;5021045;28;20034;-61
2022/04/17 06:43:40;;;;;;;6.18;3.95;;;5.70;99.90;;;;;;5012990;28;20111;-61
2022/04/17 06:46:05;;;;;;;7.55;3.65;;;5.80;99.90;;;;;;5019096;28;20038;-61
2022/04/17 06:48:31;;;;;;;8.20;3.70;;;6.10;99.90;;;;;;5011230;28;20087;-61
2022/04/17 06:50:57;;;;;;;6.20;3.50;;;6.30;99.90;;;;;;5010402;28;20030;-61
2022/04/17 06:53:23;;;;;;;7.32;3.80;;;6.40;99.90;;;;;;5024503;28;20390;-61
2022/04/17 06:55:49;;;;;;;6.75;4.13;;;6.60;99.90;;;;;;4991185;28;20264;-61
2022/04/17 06:58:17;;;;;;;8.60;3.92;;;6.70;99.90;;;;;;5009194;28;20677;-61
2022/04/17 07:00:43;;;;;;;7.05;3.67;;;6.80;99.90;;;;;;5008551;28;20482;-61
2022/04/17 07:03:09;;;;;;;7.32;3.85;;;6.90;99.90;;;;;;5009343;28;20074;-61
2022/04/17 07:05:34;;;;;;;7.38;3.63;;;6.90;99.90;;;;;;5008550;28;20489;-61
2022/04/17 07:08:03;;;;;;;7.35;3.95;;;6.90;99.90;;;;;;5009952;28;20112;-61
2022/04/17 07:10:30;;;;;;;5.80;3.40;;;7.00;99.90;;;;;;5013678;28;20086;-61
2022/04/17 07:12:56;;;;;;;11.45;3.83;;;7.10;99.90;;;;;;5010279;28;20049;-61
2022/04/17 07:15:26;;;;;;;7.38;3.50;;;7.30;99.90;;;;;;5016727;28;20410;-61
2022/04/17 07:17:53;;;;;;;6.82;3.88;;;7.50;99.90;;;;;;5008661;28;20509;-61
2022/04/17 07:20:20;;;;;;;9.30;3.50;;;7.60;99.90;;;;;;5009155;28;20033;-61
2022/04/17 07:22:47;;;;;;;6.82;3.53;;;7.70;99.90;;;;;;5008331;28;20034;-61
2022/04/17 07:25:14;;;;;;;6.80;3.50;;;7.90;99.90;;;;;;5009087;28;20030;-61
2022/04/17 07:27:45;;;;;;;8.25;3.60;;;8.00;99.90;;;;;;4990687;28;20471;-61
2022/04/17 07:30:13;;;;;;;8.48;3.60;;;8.20;99.90;;;;;;5019015;28;20163;-62
2022/04/17 07:32:41;;;;;;;7.13;2.92;;;8.40;99.90;;;;;;5026000;28;20056;-61
2022/04/17 07:35:07;;;;;;;5.78;3.05;;;8.50;97.90;;;;;;5021254;28;20500;-62
2022/04/17 07:37:35;;;;;;;8.25;2.95;;;8.60;96.90;;;;;;5020182;28;20025;-61
2022/04/17 07:40:02;;;;;;;6.63;2.80;;;8.80;94.70;;;;;;4995288;28;20166;-61
2022/04/17 07:42:28;;;;;;;5.45;2.85;;;8.90;92.20;;;;;;5016690;28;20420;-61
2022/04/17 07:44:54;;;;;;;7.15;3.17;;;8.90;92.20;;;;;;5018325;28;20033;-61
2022/04/17 07:47:19;;;;;;;11.13;3.83;;;9.00;91.30;;;;;;4996678;28;20065;-61
2022/04/17 07:49:46;;;;;;;5.70;3.28;;;9.00;90.50;;;;;;5013038;28;20124;-61
2022/04/17 07:52:12;;;;;;;6.18;2.80;;;9.00;87.50;;;;;;5012651;28;20045;-61
2022/04/17 07:54:37;;;;;;;4.28;2.63;;;9.10;90.00;;;;;;5015669;28;20131;-61
2022/04/17 07:57:03;;;;;;;5.40;2.55;;;9.20;84.00;;;;;;4999509;28;20030;-61
2022/04/17 07:59:29;;;;;;;6.35;2.70;;;9.20;84.00;;;;;;5012432;28;20042;-61
2022/04/17 08:02:11;;;;;;;5.20;3.10;;;9.30;84.10;;;;;;4994056;28;20044;-62
2022/04/17 08:04:40;;;;;;;4.45;2.50;;;9.30;83.00;;;;;;5019216;28;20033;-61
2022/04/17 08:07:06;;;;;;;7.68;3.00;;;9.30;82.50;;;;;;5019692;28;20038;-61
2022/04/17 08:09:32;;;;;;;10.38;3.00;;;9.50;83.10;;;;;;5012669;28;20434;-61
2022/04/17 08:11:59;;;;;;;4.65;2.65;;;9.60;83.40;;;;;;5011920;28;20095;-61
2022/04/17 08:14:24;;;;;;;5.68;2.90;;;9.70;79.90;;;;;;5015971;28;20046;-61
2022/04/17 08:16:50;;;;;;;7.90;2.70;;;9.70;78.60;;;;;;5011251;28;20057;-61
2022/04/17 08:19:16;;;;;;;4.85;2.58;;;9.90;79.10;;;;;;5012351;28;20038;-61
2022/04/17 08:21:41;;;;;;;4.13;2.40;;;10.00;77.30;;;;;;5011578;28;20040;-61
2022/04/17 08:24:07;;;;;;;6.43;2.63;;;10.20;75.70;;;;;;5012463;28;20368;-61
2022/04/17 08:26:33;;;;;;;6.65;2.88;;;10.20;75.70;;;;;;5016972;28;20038;-61
2022/04/17 08:28:58;;;;;;;4.15;2.38;;;10.20;75.70;;;;;;5013223;28;20045;-62
2022/04/17 08:31:24;;;;;;;5.15;2.75;;;10.50;76.40;;;;;;5012269;28;20030;-61
2022/04/17 08:33:50;;;;;;;5.22;2.60;;;10.50;74.80;;;;;;5011377;28;20038;-61
2022/04/17 08:36:15;;;;;;;9.55;2.80;;;10.40;71.40;;;;;;5011695;28;20410;-61
2022/04/17 08:38:44;;;;;;;4.80;2.83;;;10.60;72.70;;;;;;5010863;28;20485;-61
2022/04/17 08:41:11;;;;;;;5.60;2.90;;;10.80;71.60;;;;;;5011621;28;20367;-61
2022/04/17 08:43:37;;;;;;;4.07;2.47;;;10.80;73.00;;;;;;5010711;28;20100;-61
2022/04/17 08:46:03;;;;;;;4.93;2.50;;;10.90;70.20;;;;;;5011304;28;20463;-61
2022/04/17 08:48:34;;;;;;;7.65;2.60;;;11.10;71.30;;;;;;5011429;28;20042;-62
2022/04/17 08:51:02;;;;;;;4.55;2.50;;;11.30;68.00;;;;;;5015738;28;20038;-61
2022/04/17 08:53:30;;;;;;;5.93;2.38;;;11.20;68.30;;;;;;5027282;28;20440;-61
2022/04/17 08:55:58;;;;;;;4.30;2.33;;;11.10;67.50;;;;;;5019009;28;20109;-61
2022/04/17 08:58:23;;;;;;;6.13;2.78;;;11.20;65.60;;;;;;5019067;28;20025;-62
2022/04/17 09:00:49;;;;;;;5.40;2.45;;;11.40;66.00;;;;;;5010630;28;20394;-61
2022/04/17 09:03:15;;;;;;;3.83;2.17;;;11.30;61.80;;;;;;5011406;28;20076;-61
2022/04/17 09:05:40;;;;;;;5.70;2.30;;;11.30;61.50;;;;;;5010498;28;20041;-62
2022/04/17 09:08:21;;;;;;;3.85;2.20;;;11.40;60.60;;;;;;5025955;28;20038;-61
2022/04/17 09:10:59;;;;;;;6.53;2.83;;;11.60;61.70;;;;;;5010666;28;20386;-62
2022/04/17 09:13:34;;;;;;;5.18;2.78;;;11.30;62.30;;;;;;5011616;28;20107;-61
2022/04/17 09:16:04;;;;;;;4.13;2.55;;;11.40;64.30;;;;;;5009658;28;20052;-62
2022/04/17 09:18:31;;;;;;;7.78;2.10;;;11.60;62.20;;;;;;5019148;28;20466;-62
2022/04/17 09:20:58;;;;;;;4.50;2.53;;;11.70;61.00;;;;;;5018187;28;20021;-62
2022/04/17 09:23:38;;;;;;;5.25;2.90;;;11.70;59.70;;;;;;5024783;28;20107;-61
2022/04/17 09:26:05;;;;;;;4.60;2.75;;;11.50;59.40;;;;;;5002261;28;20026;-61
2022/04/17 09:28:37;;;;;;;6.43;2.47;;;11.60;62.30;;;;;;5017807;28;20091;-61
2022/04/17 09:31:10;;;;;;;4.32;2.53;;;11.80;59.00;;;;;;5010804;28;20092;-62
2022/04/17 09:33:38;;;;;;;8.20;2.92;;;12.20;61.40;;;;;;5010617;28;20045;-61
2022/04/17 09:36:05;;;;;;;7.15;2.70;;;12.30;60.90;;;;;;5013201;28;20030;-61
2022/04/17 09:38:33;;;;;;;6.57;2.97;;;12.30;58.60;;;;;;5012302;28;20025;-62
2022/04/17 09:41:15;;;;;;;6.00;2.78;;;12.20;59.80;;;;;;5010712;28;20038;-62
2022/04/17 09:43:42;;;;;;;4.57;2.78;;;12.20;58.60;;;;;;5010275;28;20042;-62
2022/04/17 09:46:09;;;;;;;4.90;2.67;;;12.40;57.90;;;;;;5018016;28;20659;-61
2022/04/17 09:48:45;;;;;;;4.82;2.60;;;12.50;57.70;;;;;;5010829;28;20045;-61
2022/04/17 09:51:28;;;;;;;6.70;2.95;;;12.60;58.00;;;;;;5013096;28;20116;-61
2022/04/17 09:54:07;;;;;;;5.13;3.13;;;12.70;58.70;;;;;;5005649;28;20048;-61
2022/04/17 09:56:36;;;;;;;5.32;2.90;;;12.80;58.00;;;;;;5021686;28;20033;-61
2022/04/17 09:59:21;;;;;;;6.10;2.72;;;12.80;58.60;;;;;;5016950;28;20032;-61
2022/04/17 10:01:52;;;;;;;4.55;2.65;;;12.80;57.90;;;;;;5013582;28;20092;-61
2022/04/17 10:04:22;;;;;;;5.60;2.80;;;12.80;57.60;;;;;;5021098;28;20041;-61
2022/04/17 10:06:53;;;;;;;6.50;2.92;;;13.00;57.20;;;;;;5012183;28;20494;-61
2022/04/17 10:09:20;;;;;;;4.00;2.67;;;13.30;58.20;;;;;;4993903;28;20036;-61
2022/04/17 10:11:47;;;;;;;5.68;2.20;;;13.30;58.60;;;;;;5020177;28;20041;-61
2022/04/17 10:14:14;;;;;;;3.83;2.50;;;13.60;57.60;;;;;;5009937;28;20037;-62
2022/04/17 10:16:41;;;;;;;6.68;2.47;;;13.90;58.50;;;;;;4992270;28;20072;-62
2022/04/17 10:19:21;;;;;;;4.63;2.28;;;13.90;54.10;;;;;;5009861;28;20030;-61
2022/04/17 10:21:47;;;;;;;3.33;2.30;;;13.60;55.50;;;;;;5009228;28;20053;-61
2022/04/17 10:24:16;;;;;;;4.18;2.20;;;13.50;54.20;;;;;;5028777;28;20446;-61
2022/04/17 10:26:45;;;;;;;3.97;2.40;;;13.40;55.20;;;;;;5014239;28;20029;-61
2022/04/17 10:29:35;;;;;;;5.38;2.17;;;13.70;54.50;;;;;;5017665;28;20553;-62
2022/04/17 10:32:19;;;;;;;5.03;2.47;;;13.90;55.80;;;;;;5017347;28;20056;-62
2022/04/17 10:35:09;;;;;;;3.28;2.20;;;13.90;54.10;;;;;;5009597;28;20128;-61
2022/04/17 10:37:57;;;;;;;4.30;2.13;;;13.50;51.90;;;;;;5010002;28;20034;-61
2022/04/17 10:40:23;;;;;;;4.25;2.25;;;13.40;55.60;;;;;;5003545;28;20429;-61
2022/04/17 10:43:02;;;;;;;4.35;1.92;;;13.80;54.90;;;;;;5015151;28;20029;-62
2022/04/17 10:45:31;;;;;;;5.68;2.40;;;14.30;53.80;;;;;;5006616;28;20457;-62
2022/04/17 10:48:11;;;;;;;6.93;2.60;;;14.40;53.80;;;;;;4991652;28;20038;-62
2022/04/17 10:50:51;;;;;;;3.63;2.17;;;14.30;54.20;;;;;;5009276;28;20352;-61
2022/04/17 10:53:25;;;;;;;4.40;2.45;;;14.00;52.70;;;;;;4991817;28;20462;-62
2022/04/17 10:56:14;;;;;;;3.40;2.38;;;13.90;52.20;;;;;;5016331;28;20458;-61
2022/04/17 10:58:49;;;;;;;3.85;2.17;;;13.70;52.70;;;;;;5009291;28;20062;-62
2022/04/17 11:01:15;;;;;;;4.43;2.22;;;14.00;52.70;;;;;;5026480;28;20037;-62
2022/04/17 11:03:53;;;;;;;4.60;2.05;;;14.00;49.80;;;;;;5018252;28;20033;-62
2022/04/17 11:06:32;;;;;;;3.50;2.17;;;14.00;52.50;;;;;;5020425;28;20132;-62
2022/04/17 11:09:12;;;;;;;3.92;2.33;;;14.50;55.00;;;;;;5021226;28;20474;-61
2022/04/17 11:11:46;;;;;;;3.65;2.20;;;14.80;54.30;;;;;;5013815;28;20068;-61
2022/04/17 11:14:23;;;;;;;3.50;2.10;;;14.70;50.50;;;;;;5013118;28;20026;-62
2022/04/17 11:16:59;;;;;;;4.25;2.30;;;14.60;50.80;;;;;;5019876;28;20081;-62
2022/04/17 11:19:28;;;;;;;4.72;2.40;;;14.50;50.60;;;;;;5013364;28;20457;-61
2022/04/17 11:21:59;;;;;;;7.13;2.35;;;14.30;50.90;;;;;;5018679;28;20037;-61
2022/04/17 11:24:27;;;;;;;4.63;2.10;;;14.20;50.70;;;;;;5019806;28;20033;-62
2022/04/17 11:26:53;;;;;;;5.63;1.70;;;14.00;51.90;;;;;;5014999;28;20025;-61
2022/04/17 11:29:48;;;;;;;6.25;2.13;;;14.50;52.90;;;;;;5001845;28;20046;-61
2022/04/17 11:32:16;;;;;;;5.75;1.77;;;14.20;48.90;;;;;;5013116;28;20029;-61
2022/04/17 11:34:43;;;;;;;4.60;2.22;;;14.60;50.50;;;;;;5019337;28;20041;-61
2022/04/17 11:37:09;;;;;;;4.15;2.40;;;14.60;48.70;;;;;;5028056;28;20490;-61
2022/04/17 11:39:36;;;;;;;5.28;2.17;;;14.40;50.30;;;;;;5013724;28;20093;-61
2022/04/17 11:42:04;;;;;;;5.88;2.25;;;14.60;52.30;;;;;;5012046;28;20061;-61
2022/04/17 11:44:30;;;;;;;3.05;2.10;;;14.80;50.80;;;;;;5012515;28;20125;-61
2022/04/17 11:46:56;;;;;;;3.72;2.22;;;15.10;49.50;;;;;;5019534;28;20049;-61
2022/04/17 11:49:22;;;;;;;4.10;2.10;;;15.50;50.30;;;;;;5012905;28;20030;-61
2022/04/17 11:51:48;;;;;;;5.20;2.40;;;15.50;48.30;;;;;;5012550;28;20108;-61
2022/04/17 11:54:32;;;;;;;3.97;2.40;;;15.00;47.80;;;;;;5014039;28;20042;-61
2022/04/17 11:56:57;;;;;;;4.50;2.17;;;14.90;47.70;;;;;;5016058;28;20033;-61
2022/04/17 11:59:23;;;;;;;5.05;2.10;;;14.60;47.90;;;;;;5012706;28;20029;-61
2022/04/17 12:02:08;;;;;;;3.97;2.00;;;14.50;47.60;;;;;;5012105;28;20113;-61
2022/04/17 12:04:34;;;;;;;4.28;2.00;;;14.50;47.70;;;;;;5012389;28;20045;-61
2022/04/17 12:06:59;;;;;;;3.65;2.10;;;14.20;46.90;;;;;;5011556;28;20038;-61
2022/04/17 12:09:25;;;;;;;4.35;2.22;;;14.30;48.70;;;;;;5012610;28;20033;-61
2022/04/17 12:11:51;;;;;;;3.63;1.83;;;14.20;49.90;;;;;;5011929;28;20480;-61
2022/04/17 12:14:30;;;;;;;4.82;2.25;;;14.60;52.40;;;;;;5011991;28;20133;-61
2022/04/17 12:16:56;;;;;;;4.80;2.00;;;14.80;48.50;;;;;;5010988;28;20046;-61
2022/04/17 12:19:22;;;;;;;6.40;1.80;;;15.10;48.40;;;;;;5012060;28;20041;-61
2022/04/17 12:21:48;;;;;;;3.03;1.80;;;15.20;50.50;;;;;;5012143;28;20030;-61
2022/04/17 12:24:14;;;;;;;4.30;2.25;;;15.30;48.00;;;;;;5018942;28;20041;-61
2022/04/17 12:26:41;;;;;;;3.25;1.98;;;15.60;47.30;;;;;;5020992;28;20091;-61
2022/04/17 12:29:07;;;;;;;5.80;1.83;;;15.50;47.30;;;;;;5016216;28;20038;-61
2022/04/17 12:31:36;;;;;;;3.40;1.92;;;15.70;48.80;;;;;;5012136;28;20030;-61
2022/04/17 12:34:05;;;;;;;4.13;2.30;;;15.50;47.80;;;;;;5010987;28;20045;-61
2022/04/17 12:36:31;;;;;;;4.05;2.40;;;15.30;48.10;;;;;;5027520;28;20116;-61
2022/04/17 12:38:57;;;;;;;3.45;2.00;;;15.00;47.70;;;;;;5019760;28;20093;-61
2022/04/17 12:41:27;;;;;;;3.50;2.10;;;15.10;50.40;;;;;;5011865;28;20061;-62
2022/04/17 12:43:53;;;;;;;4.53;2.33;;;15.20;49.60;;;;;;5010984;28;20037;-61
2022/04/17 12:46:28;;;;;;;6.20;2.65;;;15.10;48.70;;;;;;5011391;28;20045;-61
2022/04/17 12:49:15;;;;;;;5.22;2.10;;;15.40;50.40;;;;;;5015506;28;20801;-61
2022/04/17 12:51:54;;;;;;;4.72;1.95;;;15.60;49.40;;;;;;5011574;28;20057;-61
2022/04/17 12:54:20;;;;;;;3.08;1.95;;;15.20;47.30;;;;;;5011465;28;20390;-61
2022/04/17 12:56:49;;;;;;;4.47;1.98;;;15.30;48.20;;;;;;5025847;28;20037;-61
2022/04/17 12:59:20;;;;;;;3.38;1.80;;;15.30;45.90;;;;;;5010885;28;20030;-61
2022/04/17 13:01:47;;;;;;;3.45;1.60;;;15.30;46.00;;;;;;5013577;28;20684;-61
2022/04/17 13:04:23;;;;;;;3.95;2.20;;;15.60;46.10;;;;;;5013669;28;20325;-61